Terminal Aerodrome Forecast
Issued by NWS

Home | Current Version | Previous Version | Text Only | Print | Product List | Glossary On
Versions: 1 2 3 4 5 6 7 8 9 10 11 12 13 14 15 16 17 18 19 20 21 22 23 24
000
FTUS41 KGYX 172324
TAFAUG
TAF
KAUG 172324Z 1800/1824 31007KT P6SM SKC
     FM180200 00000KT P6SM SCT120 BKN250
     FM181300 06005KT P6SM BKN060
     FM181600 09005KT 5SM BR SCT020 BKN045 OVC080
     FM181800 09005KT 4SM -RA BR OVC015
     FM182000 08006KT 2SM -RA BR OVC007=

USA.gov is the U.S. government's official web portal to all federal, state and local government web resources and services.